Time;durP1;ratioP1;P1;durP2;ratioP2;P2;SDS_P1;SDS_P2;PMS_P1;PMS_P2;Temp;Humidity;BMP_temperature;BMP_pressure;BME280_temperature;BME280_humidity;BME280_pressure;Samples;Min_cycle;Max_cycle;Signal;HPM_P1;HPM_P2
2023/01/19 00:00:21;;;;;;;48.23;29.90;;;4.80;99.90;;;;;;5048407;28;20552;-80
2023/01/19 00:03:14;;;;;;;43.93;29.33;;;4.70;99.90;;;;;;5032571;28;20291;-81
2023/01/19 00:06:07;;;;;;;43.17;28.77;;;4.70;99.90;;;;;;5041010;28;20239;-79
2023/01/19 00:08:56;;;;;;;45.40;28.67;;;4.70;99.90;;;;;;5048442;28;20271;-79
2023/01/19 00:11:45;;;;;;;46.93;29.33;;;4.70;99.90;;;;;;5039669;28;20707;-80
2023/01/19 00:14:34;;;;;;;46.10;29.17;;;4.60;99.90;;;;;;5056273;28;20218;-79
2023/01/19 00:17:23;;;;;;;45.93;28.70;;;4.60;99.90;;;;;;5052109;28;20255;-79
2023/01/19 00:20:12;;;;;;;46.87;30.00;;;4.70;99.90;;;;;;5055950;28;20575;-79
2023/01/19 00:23:03;;;;;;;45.83;29.30;;;4.70;99.90;;;;;;5060157;28;20600;-80
2023/01/19 00:25:52;;;;;;;46.53;29.30;;;4.70;99.90;;;;;;5050550;28;20224;-78
2023/01/19 00:28:43;;;;;;;46.97;28.60;;;4.80;99.90;;;;;;5046413;28;20225;-78
2023/01/19 00:31:32;;;;;;;44.40;28.47;;;4.80;99.90;;;;;;5060089;28;20699;-78
2023/01/19 00:34:21;;;;;;;45.97;28.50;;;4.90;99.90;;;;;;5066206;28;20820;-78
2023/01/19 00:37:10;;;;;;;45.40;28.00;;;5.10;99.90;;;;;;5050611;28;20223;-78
2023/01/19 00:40:00;;;;;;;43.87;28.50;;;5.10;99.90;;;;;;5064368;28;20334;-78
2023/01/19 00:42:49;;;;;;;43.63;29.03;;;5.10;99.90;;;;;;5048510;28;20251;-77
2023/01/19 00:45:38;;;;;;;43.67;27.77;;;5.00;99.90;;;;;;5047404;28;20812;-79
2023/01/19 00:48:27;;;;;;;43.23;27.17;;;5.00;99.90;;;;;;5038320;28;20306;-78
2023/01/19 00:51:18;;;;;;;43.30;27.77;;;5.00;99.90;;;;;;5045578;28;20313;-78
2023/01/19 00:54:09;;;;;;;43.53;27.13;;;5.10;99.90;;;;;;5042644;28;20299;-78
2023/01/19 00:56:59;;;;;;;42.97;27.93;;;5.10;99.90;;;;;;5048195;28;21151;-78
2023/01/19 00:59:47;;;;;;;43.80;27.13;;;5.10;99.90;;;;;;5061886;28;20232;-77
2023/01/19 01:02:36;;;;;;;43.70;28.30;;;5.10;99.90;;;;;;5056963;28;20224;-77
2023/01/19 01:05:25;;;;;;;42.53;27.47;;;5.20;99.90;;;;;;5060642;28;20227;-77
2023/01/19 01:08:14;;;;;;;39.43;26.90;;;5.20;99.90;;;;;;5058733;28;20240;-78
2023/01/19 01:11:03;;;;;;;44.00;27.70;;;5.10;99.90;;;;;;5062282;28;20231;-78
2023/01/19 01:13:55;;;;;;;45.77;27.83;;;5.30;99.90;;;;;;5060042;28;20232;-79
2023/01/19 01:16:46;;;;;;;39.90;26.47;;;5.20;99.90;;;;;;5056611;28;20228;-82
2023/01/19 01:19:35;;;;;;;43.33;28.23;;;5.00;99.90;;;;;;5058450;28;20227;-77
2023/01/19 01:22:23;;;;;;;43.47;27.40;;;5.00;99.90;;;;;;5061661;28;20231;-78
2023/01/19 01:25:13;;;;;;;46.30;28.40;;;5.10;99.90;;;;;;5061693;28;20224;-79
2023/01/19 01:28:02;;;;;;;42.73;27.43;;;5.10;99.90;;;;;;5053996;28;20315;-78
2023/01/19 01:30:55;;;;;;;45.33;28.20;;;5.20;99.90;;;;;;5050841;28;20695;-78
2023/01/19 01:33:43;;;;;;;43.30;27.60;;;5.20;99.90;;;;;;5061693;28;20221;-77
2023/01/19 01:36:32;;;;;;;44.60;27.53;;;5.20;99.90;;;;;;5048046;28;20216;-78
2023/01/19 01:39:21;;;;;;;45.00;27.77;;;5.30;99.90;;;;;;5067305;28;20216;-77
2023/01/19 01:42:17;;;;;;;43.67;27.63;;;5.20;99.90;;;;;;5065826;28;20216;-77
2023/01/19 01:45:25;;;;;;;43.40;28.00;;;5.20;99.90;;;;;;5061287;28;20311;-78
2023/01/19 01:48:21;;;;;;;43.67;28.07;;;5.20;99.90;;;;;;5062154;28;20227;-78
2023/01/19 01:51:25;;;;;;;45.50;28.77;;;5.20;99.90;;;;;;5059813;28;20224;-77
2023/01/19 01:54:19;;;;;;;45.37;28.63;;;5.20;99.90;;;;;;5050861;28;20227;-78
2023/01/19 01:57:11;;;;;;;45.37;29.03;;;5.20;99.90;;;;;;5065154;28;20231;-78
2023/01/19 02:00:02;;;;;;;46.40;27.70;;;5.30;99.90;;;;;;5066513;28;20297;-78
2023/01/19 02:02:53;;;;;;;48.00;29.33;;;5.30;99.90;;;;;;5065674;28;20232;-77
2023/01/19 02:05:44;;;;;;;48.07;29.20;;;5.30;99.90;;;;;;5057363;28;20224;-78
2023/01/19 02:14:50;;;;;;;44.83;27.43;;;5.00;99.90;;;;;;5059448;28;20219;-78
2023/01/19 02:17:38;;;;;;;44.90;28.33;;;5.00;99.90;;;;;;5057790;28;20242;-79
2023/01/19 02:20:31;;;;;;;46.77;28.90;;;5.10;99.90;;;;;;5060777;28;20228;-78
2023/01/19 02:23:30;;;;;;;47.03;29.57;;;5.20;99.90;;;;;;5057849;28;20217;-79
2023/01/19 02:26:21;;;;;;;43.73;26.83;;;5.20;99.90;;;;;;5041933;28;20231;-78
2023/01/19 02:29:12;;;;;;;40.17;25.53;;;5.00;99.90;;;;;;5041765;28;20232;-78
2023/01/19 02:32:02;;;;;;;38.30;23.87;;;4.90;99.90;;;;;;5061917;28;20228;-78
2023/01/19 02:34:51;;;;;;;44.77;26.93;;;5.00;99.90;;;;;;5056088;28;20225;-78
2023/01/19 02:37:41;;;;;;;44.00;27.57;;;5.00;99.90;;;;;;5054533;28;20220;-79
2023/01/19 02:40:32;;;;;;;45.10;26.27;;;5.00;99.90;;;;;;5062066;28;20702;-77
2023/01/19 02:43:23;;;;;;;43.13;26.90;;;5.00;99.90;;;;;;5039635;28;20695;-78
2023/01/19 02:46:14;;;;;;;47.27;28.40;;;5.00;99.90;;;;;;5060128;28;20220;-80
2023/01/19 02:49:03;;;;;;;48.43;29.80;;;4.90;99.90;;;;;;5052970;28;20590;-79
2023/01/19 02:51:52;;;;;;;48.43;30.03;;;4.80;99.90;;;;;;5041674;28;20220;-79
2023/01/19 02:54:54;;;;;;;50.03;30.70;;;4.90;99.90;;;;;;5042670;28;20224;-79
2023/01/19 02:57:55;;;;;;;46.87;29.20;;;5.00;99.90;;;;;;5040195;28;20223;-79
2023/01/19 03:00:52;;;;;;;47.80;29.47;;;5.10;99.90;;;;;;5053967;28;20805;-79
2023/01/19 03:03:50;;;;;;;48.23;29.23;;;5.00;99.90;;;;;;5048386;28;20220;-79
2023/01/19 03:06:44;;;;;;;46.37;28.73;;;5.10;99.90;;;;;;5052839;28;20239;-80
2023/01/19 03:09:40;;;;;;;48.00;29.50;;;5.00;99.90;;;;;;5050342;28;20239;-77
2023/01/19 03:12:39;;;;;;;51.23;29.20;;;5.10;99.90;;;;;;5039306;28;20225;-77
2023/01/19 03:15:36;;;;;;;49.43;29.27;;;5.30;99.90;;;;;;5042720;28;20228;-79
2023/01/19 03:18:29;;;;;;;47.93;29.13;;;5.30;99.90;;;;;;5044173;28;20219;-79
2023/01/19 03:21:20;;;;;;;49.47;29.80;;;5.40;99.90;;;;;;5044301;28;20217;-80
2023/01/19 03:24:12;;;;;;;44.40;28.43;;;5.40;99.90;;;;;;5059508;28;20231;-80
2023/01/19 03:27:05;;;;;;;45.70;28.27;;;5.40;99.90;;;;;;5065954;28;20215;-79
2023/01/19 03:29:57;;;;;;;44.87;27.40;;;5.20;99.90;;;;;;5064605;28;20226;-78
2023/01/19 03:32:51;;;;;;;45.60;28.20;;;5.20;99.90;;;;;;5065370;28;20220;-78
2023/01/19 03:35:44;;;;;;;47.67;29.43;;;5.40;99.90;;;;;;5060604;28;20219;-78
2023/01/19 03:38:37;;;;;;;44.40;27.60;;;5.30;99.90;;;;;;5045649;28;20227;-79
2023/01/19 03:41:27;;;;;;;45.53;28.13;;;5.30;99.90;;;;;;5062546;28;20735;-78
2023/01/19 03:44:16;;;;;;;43.40;27.77;;;5.20;99.90;;;;;;5064911;28;20220;-77
2023/01/19 03:47:07;;;;;;;42.37;26.83;;;5.30;99.90;;;;;;5063502;28;20761;-77
2023/01/19 03:50:01;;;;;;;45.43;28.97;;;5.00;99.90;;;;;;5065476;28;20228;-76
2023/01/19 03:53:01;;;;;;;45.93;28.50;;;5.00;99.90;;;;;;5059429;28;20224;-77
2023/01/19 03:55:53;;;;;;;46.37;28.07;;;5.00;99.90;;;;;;5045288;28;20224;-77
2023/01/19 03:58:42;;;;;;;45.23;28.63;;;5.10;99.90;;;;;;5062760;28;20224;-78
2023/01/19 04:01:31;;;;;;;42.77;28.10;;;5.00;99.90;;;;;;5064157;28;20243;-75
2023/01/19 04:04:19;;;;;;;45.80;28.83;;;5.00;99.90;;;;;;5059124;28;20231;-77
2023/01/19 04:07:10;;;;;;;47.17;29.43;;;5.00;99.90;;;;;;5054435;28;20628;-77
2023/01/19 04:09:59;;;;;;;45.80;28.80;;;5.00;99.90;;;;;;5044522;28;20595;-78
2023/01/19 04:12:48;;;;;;;46.93;28.87;;;5.20;99.90;;;;;;5043930;28;20635;-78
2023/01/19 04:15:37;;;;;;;45.33;28.00;;;5.20;99.90;;;;;;5045244;28;20715;-78
2023/01/19 04:18:26;;;;;;;42.20;27.77;;;5.00;99.90;;;;;;5035017;28;20229;-79
2023/01/19 04:21:15;;;;;;;42.73;27.67;;;5.10;99.90;;;;;;5041702;28;20221;-78
2023/01/19 04:24:06;;;;;;;45.07;28.90;;;4.90;99.90;;;;;;5049208;28;20327;-78
2023/01/19 04:26:54;;;;;;;46.80;28.30;;;5.00;99.90;;;;;;5037973;28;20220;-77
2023/01/19 04:29:43;;;;;;;43.77;28.47;;;4.80;99.90;;;;;;5045863;28;20267;-77
2023/01/19 04:32:32;;;;;;;45.83;28.17;;;4.90;99.90;;;;;;5062338;28;20224;-77
2023/01/19 04:35:22;;;;;;;43.10;28.13;;;4.70;99.90;;;;;;5043597;28;20576;-78
2023/01/19 04:38:11;;;;;;;46.07;29.50;;;4.50;99.90;;;;;;5041352;28;20780;-78
2023/01/19 04:41:01;;;;;;;44.63;27.80;;;4.50;99.90;;;;;;5033676;28;20596;-78
2023/01/19 04:43:49;;;;;;;44.53;28.47;;;4.50;99.90;;;;;;5045484;28;20609;-78
2023/01/19 04:46:38;;;;;;;42.97;28.47;;;4.60;99.90;;;;;;5048690;28;20220;-76
2023/01/19 04:49:27;;;;;;;44.70;28.20;;;4.70;99.90;;;;;;5047766;28;20371;-77
2023/01/19 04:52:16;;;;;;;43.03;27.27;;;4.80;99.90;;;;;;5059195;28;20710;-78
2023/01/19 04:55:06;;;;;;;45.40;29.27;;;4.70;99.90;;;;;;5059228;28;20246;-78
2023/01/19 04:57:56;;;;;;;44.37;28.70;;;4.70;99.90;;;;;;5049262;28;20232;-77
2023/01/19 05:00:45;;;;;;;47.30;30.37;;;4.60;99.90;;;;;;5040362;28;20232;-78
2023/01/19 05:03:34;;;;;;;49.63;31.27;;;4.60;99.90;;;;;;5063775;28;20384;-77
2023/01/19 05:06:22;;;;;;;47.37;31.13;;;4.70;99.90;;;;;;5046721;28;20217;-77
2023/01/19 05:09:13;;;;;;;49.93;31.23;;;4.80;99.90;;;;;;5060122;28;20235;-77
2023/01/19 05:12:02;;;;;;;46.43;30.43;;;4.90;99.90;;;;;;5056979;28;20730;-76
2023/01/19 05:14:52;;;;;;;44.93;28.10;;;4.80;99.90;;;;;;5058755;28;20235;-77
2023/01/19 05:17:41;;;;;;;45.93;29.30;;;4.80;99.90;;;;;;5059610;28;20243;-76
2023/01/19 05:20:30;;;;;;;43.93;28.43;;;4.80;99.90;;;;;;5056874;28;20231;-79
2023/01/19 05:23:19;;;;;;;44.20;27.90;;;4.80;99.90;;;;;;5056273;28;20235;-77
2023/01/19 05:26:07;;;;;;;43.70;27.97;;;4.90;99.90;;;;;;5045196;28;20878;-77
2023/01/19 05:28:58;;;;;;;43.60;27.07;;;4.70;99.90;;;;;;5058929;28;20620;-77
2023/01/19 05:31:48;;;;;;;41.50;25.80;;;4.80;99.90;;;;;;5062714;28;20264;-78
2023/01/19 05:34:37;;;;;;;37.00;24.13;;;4.70;99.90;;;;;;5059393;28;20239;-78
2023/01/19 05:37:25;;;;;;;38.00;25.10;;;4.50;99.90;;;;;;5061509;28;20238;-77
2023/01/19 05:40:14;;;;;;;37.87;24.40;;;4.50;99.90;;;;;;5064319;28;20677;-78
2023/01/19 05:43:03;;;;;;;39.17;24.23;;;4.60;99.90;;;;;;5062793;28;20335;-77
2023/01/19 05:45:52;;;;;;;42.30;25.13;;;4.80;99.90;;;;;;5059970;28;20247;-77
2023/01/19 05:48:43;;;;;;;36.40;23.57;;;4.80;99.90;;;;;;5054310;28;20211;-77
2023/01/19 05:51:36;;;;;;;37.57;22.23;;;4.70;99.90;;;;;;5063038;28;20223;-78
2023/01/19 05:54:25;;;;;;;37.47;24.17;;;4.70;99.90;;;;;;5057551;28;20224;-77
2023/01/19 05:57:14;;;;;;;35.63;22.63;;;4.70;99.90;;;;;;5063629;28;20216;-79
2023/01/19 06:00:04;;;;;;;39.10;24.00;;;4.70;99.90;;;;;;5062006;28;20235;-78
2023/01/19 06:02:56;;;;;;;35.70;22.77;;;4.60;99.90;;;;;;5059155;28;20228;-79
2023/01/19 06:05:46;;;;;;;36.27;22.40;;;4.60;99.90;;;;;;5059963;28;20224;-82
2023/01/19 06:08:35;;;;;;;37.77;24.30;;;4.70;99.90;;;;;;5061624;28;20236;-80
2023/01/19 06:11:24;;;;;;;34.70;23.10;;;4.60;99.90;;;;;;5063386;28;20737;-79
2023/01/19 06:14:13;;;;;;;39.07;24.07;;;4.70;99.90;;;;;;5057458;28;20667;-79
2023/01/19 06:17:02;;;;;;;39.27;24.90;;;4.70;99.90;;;;;;5057187;28;20736;-78
2023/01/19 06:19:51;;;;;;;39.83;24.60;;;4.80;99.90;;;;;;5044760;28;20224;-78
2023/01/19 06:22:41;;;;;;;35.00;22.40;;;4.90;99.90;;;;;;5042610;28;20220;-79
2023/01/19 06:25:30;;;;;;;38.50;24.37;;;4.90;99.90;;;;;;5043835;28;20223;-80
2023/01/19 06:28:18;;;;;;;39.23;23.30;;;4.90;99.90;;;;;;5065561;28;20293;-79
2023/01/19 06:31:07;;;;;;;36.77;24.03;;;4.80;99.90;;;;;;5066552;28;20224;-79
2023/01/19 06:33:56;;;;;;;36.83;23.00;;;4.80;99.90;;;;;;5053054;28;20216;-78
2023/01/19 06:36:45;;;;;;;36.47;23.47;;;4.90;99.90;;;;;;5065271;28;20227;-77
2023/01/19 06:39:36;;;;;;;33.33;21.93;;;4.90;99.90;;;;;;5060894;28;20224;-76
2023/01/19 06:42:27;;;;;;;35.60;21.13;;;4.80;99.90;;;;;;5066615;28;20216;-76
2023/01/19 06:45:16;;;;;;;34.17;21.97;;;4.70;99.90;;;;;;5047952;28;20701;-77
2023/01/19 06:48:06;;;;;;;33.63;21.80;;;4.70;99.90;;;;;;5044498;28;20224;-77
2023/01/19 06:50:55;;;;;;;33.97;21.57;;;4.90;99.90;;;;;;5065102;28;20314;-77
2023/01/19 06:53:47;;;;;;;31.93;20.13;;;4.90;99.90;;;;;;5063184;28;20823;-78
2023/01/19 06:56:37;;;;;;;32.60;20.90;;;4.80;99.90;;;;;;5061573;28;20238;-77
2023/01/19 06:59:26;;;;;;;30.83;19.70;;;4.90;99.90;;;;;;5061955;28;20220;-76
2023/01/19 07:02:19;;;;;;;31.77;20.57;;;4.90;99.90;;;;;;5064396;28;20358;-74
2023/01/19 07:05:16;;;;;;;35.63;20.97;;;5.00;99.90;;;;;;5060699;28;20243;-76
2023/01/19 07:08:08;;;;;;;35.30;20.07;;;5.00;99.90;;;;;;5050184;28;20224;-75
2023/01/19 07:11:00;;;;;;;34.10;20.77;;;4.80;99.90;;;;;;5049039;28;20776;-75
2023/01/19 07:14:10;;;;;;;30.33;19.57;;;4.90;99.90;;;;;;5055869;28;20227;-75
2023/01/19 07:17:00;;;;;;;33.67;21.80;;;5.00;99.90;;;;;;5034346;28;20230;-76
2023/01/19 07:19:49;;;;;;;28.17;18.97;;;5.00;99.90;;;;;;5060308;28;20224;-75
2023/01/19 07:22:37;;;;;;;26.70;18.63;;;4.80;99.90;;;;;;5057213;28;20219;-75
2023/01/19 07:25:27;;;;;;;29.80;19.70;;;4.60;99.90;;;;;;5056937;28;20304;-79
2023/01/19 07:28:16;;;;;;;32.53;19.87;;;4.80;99.90;;;;;;5055061;28;20700;-79
2023/01/19 07:31:06;;;;;;;42.87;20.90;;;4.90;99.90;;;;;;5049254;28;20634;-79
2023/01/19 07:33:55;;;;;;;29.37;18.93;;;5.00;99.90;;;;;;5048380;28;20766;-80
2023/01/19 07:36:44;;;;;;;27.10;18.20;;;4.90;99.90;;;;;;5041361;28;20347;-80
2023/01/19 07:39:35;;;;;;;29.83;18.87;;;5.00;99.90;;;;;;5060252;28;20232;-79
2023/01/19 07:42:24;;;;;;;31.50;19.30;;;4.80;99.90;;;;;;5067619;28;20663;-80
2023/01/19 07:45:14;;;;;;;30.27;18.93;;;4.90;99.90;;;;;;5046280;28;20258;-80
2023/01/19 07:48:04;;;;;;;30.37;19.20;;;4.90;99.90;;;;;;5050684;28;20768;-80
2023/01/19 07:50:53;;;;;;;28.53;18.97;;;4.80;99.90;;;;;;5062752;28;20702;-79
2023/01/19 07:53:42;;;;;;;31.17;19.13;;;5.00;99.90;;;;;;5058732;28;20235;-81
2023/01/19 07:56:31;;;;;;;31.93;19.77;;;5.10;99.90;;;;;;5056685;28;20231;-80
2023/01/19 07:59:24;;;;;;;30.87;20.10;;;5.20;99.90;;;;;;5050108;28;20231;-81
2023/01/19 08:02:12;;;;;;;34.33;20.47;;;5.20;99.90;;;;;;5044366;28;20227;-89
2023/01/19 08:05:06;;;;;;;34.43;20.60;;;5.10;99.90;;;;;;5055078;28;20691;-89
2023/01/19 08:07:56;;;;;;;33.20;20.70;;;5.00;99.90;;;;;;5064756;28;20690;-86
2023/01/19 08:10:45;;;;;;;33.23;20.83;;;5.00;99.90;;;;;;5062056;28;20232;-87
2023/01/19 08:13:34;;;;;;;33.37;21.97;;;5.00;99.90;;;;;;5060831;28;20215;-87
2023/01/19 08:16:23;;;;;;;36.27;22.00;;;5.00;99.90;;;;;;5060395;28;20235;-88
2023/01/19 08:19:12;;;;;;;32.57;21.30;;;5.10;99.90;;;;;;5058614;28;20350;-90
2023/01/19 08:22:03;;;;;;;31.67;21.13;;;4.80;99.90;;;;;;5062807;28;20224;-87
2023/01/19 08:24:53;;;;;;;33.80;21.50;;;5.00;99.90;;;;;;5058980;28;20228;-87
2023/01/19 08:27:43;;;;;;;40.03;21.40;;;5.20;99.90;;;;;;5060351;28;22428;-86
2023/01/19 08:30:32;;;;;;;31.40;20.70;;;5.00;99.90;;;;;;5060041;28;20634;-86
2023/01/19 08:33:22;;;;;;;32.83;20.73;;;5.20;99.90;;;;;;5060453;28;20220;-87
2023/01/19 08:36:11;;;;;;;30.17;19.43;;;5.10;99.90;;;;;;5068417;28;20238;-86
2023/01/19 08:39:02;;;;;;;32.40;20.60;;;4.90;99.90;;;;;;5060272;28;20567;-86
2023/01/19 08:41:51;;;;;;;32.10;19.90;;;5.10;99.90;;;;;;5058595;28;20899;-87
2023/01/19 08:44:43;;;;;;;30.57;20.30;;;5.10;99.90;;;;;;5067302;28;20228;-86
2023/01/19 08:47:46;;;;;;;29.23;19.33;;;5.00;99.90;;;;;;5051885;28;20574;-87
2023/01/19 08:50:37;;;;;;;31.73;20.13;;;4.70;99.90;;;;;;5060521;28;20591;-86
2023/01/19 08:53:26;;;;;;;33.77;20.57;;;4.70;99.90;;;;;;5049240;28;20217;-86
2023/01/19 08:56:16;;;;;;;32.40;20.93;;;4.60;99.90;;;;;;5061306;28;20238;-86
2023/01/19 08:59:08;;;;;;;35.73;20.90;;;4.80;99.90;;;;;;5063607;28;20239;-88
2023/01/19 09:02:01;;;;;;;30.13;19.87;;;4.90;99.90;;;;;;5051297;28;20540;-87
2023/01/19 09:04:50;;;;;;;31.57;19.97;;;4.80;99.90;;;;;;5062711;28;21015;-86
2023/01/19 09:07:40;;;;;;;31.37;19.00;;;4.90;99.90;;;;;;5062969;28;20231;-87
2023/01/19 09:10:34;;;;;;;26.60;18.80;;;5.00;99.90;;;;;;5063285;28;20217;-86
2023/01/19 09:13:25;;;;;;;26.43;17.63;;;4.60;99.90;;;;;;5049775;28;20245;-87
2023/01/19 09:16:14;;;;;;;31.27;19.83;;;4.50;99.90;;;;;;5045868;28;20629;-87
2023/01/19 09:19:07;;;;;;;30.50;19.63;;;4.60;99.90;;;;;;5045301;28;20267;-86
2023/01/19 09:21:58;;;;;;;26.10;17.37;;;4.60;99.90;;;;;;5065734;28;20239;-87
2023/01/19 09:24:46;;;;;;;25.23;17.20;;;4.60;99.90;;;;;;5046414;28;20228;-88
2023/01/19 09:27:35;;;;;;;28.87;18.23;;;4.50;99.90;;;;;;5046079;28;20395;-87
2023/01/19 09:30:26;;;;;;;27.23;17.53;;;4.70;99.90;;;;;;5048316;28;20228;-86
2023/01/19 09:33:18;;;;;;;28.30;17.23;;;4.90;99.90;;;;;;5044089;28;20232;-86
2023/01/19 09:36:07;;;;;;;25.43;17.33;;;5.00;99.90;;;;;;5042248;28;20217;-87
2023/01/19 09:38:56;;;;;;;26.47;16.73;;;5.10;99.90;;;;;;5064892;28;20889;-88
2023/01/19 09:41:49;;;;;;;22.63;15.27;;;4.70;99.90;;;;;;5064612;28;20239;-87
2023/01/19 09:44:40;;;;;;;25.67;17.00;;;4.70;99.90;;;;;;5045679;28;20227;-88
2023/01/19 09:47:36;;;;;;;28.70;17.30;;;4.80;99.90;;;;;;5063979;28;20241;-88
2023/01/19 09:50:28;;;;;;;27.83;18.63;;;4.70;99.90;;;;;;5060851;28;20311;-88
2023/01/19 09:53:23;;;;;;;30.30;17.93;;;4.50;99.90;;;;;;5066028;28;20215;-89
2023/01/19 09:56:15;;;;;;;30.30;18.87;;;4.80;99.90;;;;;;5049588;28;20227;-90
2023/01/19 09:59:19;;;;;;;28.93;19.27;;;5.10;99.90;;;;;;5065703;28;20213;-91
2023/01/19 10:02:22;;;;;;;30.23;18.43;;;4.80;99.90;;;;;;5070559;28;20981;-90
2023/01/19 10:05:25;;;;;;;30.50;18.37;;;4.90;99.90;;;;;;5068264;28;20228;-91
2023/01/19 10:08:26;;;;;;;29.80;18.53;;;5.00;99.90;;;;;;5056341;28;20227;-90
2023/01/19 10:11:34;;;;;;;30.37;19.73;;;5.20;99.90;;;;;;5072019;28;20242;-90
2023/01/19 10:14:46;;;;;;;29.93;19.33;;;5.20;99.90;;;;;;5042344;28;20226;-90
2023/01/19 10:17:44;;;;;;;33.17;21.23;;;5.00;99.90;;;;;;5067500;28;20271;-90
2023/01/19 10:20:40;;;;;;;33.17;21.10;;;4.90;99.90;;;;;;5064373;28;20330;-91
2023/01/19 10:23:43;;;;;;;34.20;21.20;;;5.00;99.90;;;;;;5058583;28;20224;-91
2023/01/19 10:26:39;;;;;;;31.53;20.30;;;4.80;99.90;;;;;;5069122;28;20303;-91
2023/01/19 10:29:34;;;;;;;32.63;21.07;;;4.60;99.90;;;;;;5065995;28;20224;-91
2023/01/19 10:32:24;;;;;;;31.33;20.27;;;4.70;99.90;;;;;;5058527;28;20204;-90
2023/01/19 10:35:22;;;;;;;31.40;20.43;;;4.70;99.90;;;;;;5065692;28;20245;-91
2023/01/19 10:38:18;;;;;;;27.43;18.90;;;4.70;99.90;;;;;;5066825;28;20702;-90
2023/01/19 10:41:14;;;;;;;25.87;17.37;;;4.70;99.90;;;;;;5073667;28;20232;-91
2023/01/19 10:44:05;;;;;;;27.47;16.93;;;4.60;99.90;;;;;;5057944;28;20228;-92
2023/01/19 10:46:55;;;;;;;27.37;16.60;;;4.70;99.90;;;;;;5057193;28;20594;-91
2023/01/19 10:49:48;;;;;;;30.40;18.30;;;4.90;99.90;;;;;;5063563;28;20235;-91
2023/01/19 10:52:40;;;;;;;28.27;17.90;;;4.70;99.90;;;;;;5051290;28;20352;-91
2023/01/19 10:55:32;;;;;;;28.47;18.43;;;4.70;99.90;;;;;;5063445;28;20230;-90
2023/01/19 10:58:30;;;;;;;28.13;18.40;;;4.90;99.90;;;;;;5072236;28;20200;-87
2023/01/19 11:01:22;;;;;;;23.77;16.30;;;5.00;99.90;;;;;;5062314;28;20251;-91
2023/01/19 11:04:29;;;;;;;24.83;17.53;;;4.90;99.90;;;;;;5060452;28;20216;-91
2023/01/19 11:07:21;;;;;;;22.30;15.73;;;5.00;99.90;;;;;;5064670;28;20281;-91
2023/01/19 11:10:22;;;;;;;23.63;15.70;;;4.90;99.90;;;;;;5052461;28;20269;-91
2023/01/19 11:13:14;;;;;;;24.83;16.73;;;4.60;99.90;;;;;;5067896;28;20239;-92
2023/01/19 11:16:06;;;;;;;27.03;17.37;;;4.90;99.90;;;;;;5056469;28;20228;-91
2023/01/19 11:19:00;;;;;;;25.17;16.73;;;4.90;99.90;;;;;;5072815;28;20235;-91
2023/01/19 11:21:50;;;;;;;28.77;18.40;;;4.90;99.90;;;;;;5075797;28;20231;-93
2023/01/19 11:24:39;;;;;;;28.37;18.17;;;4.70;99.90;;;;;;5061298;28;20258;-93
2023/01/19 11:27:31;;;;;;;30.93;19.57;;;4.90;99.90;;;;;;5072050;28;20220;-90
2023/01/19 11:30:26;;;;;;;31.70;19.80;;;4.90;99.90;;;;;;5066849;28;20236;-92
2023/01/19 11:33:25;;;;;;;28.80;18.53;;;5.10;99.90;;;;;;5055138;28;20224;-91
2023/01/19 11:36:19;;;;;;;31.50;19.93;;;5.20;99.90;;;;;;5070377;28;20227;-90
2023/01/19 11:39:22;;;;;;;29.37;19.00;;;5.20;99.90;;;;;;5070653;28;20220;-90
2023/01/19 11:42:13;;;;;;;27.03;17.47;;;5.20;99.90;;;;;;5071903;28;20257;-90
2023/01/19 11:45:07;;;;;;;27.57;18.47;;;5.00;99.90;;;;;;5069200;28;20602;-89
2023/01/19 11:48:00;;;;;;;28.33;18.53;;;5.20;99.90;;;;;;5057660;28;20246;-92
2023/01/19 11:50:50;;;;;;;27.20;18.57;;;5.00;99.90;;;;;;5070681;28;20220;-89
2023/01/19 11:53:42;;;;;;;32.60;18.53;;;4.90;99.90;;;;;;5060563;28;20294;-87
2023/01/19 11:56:32;;;;;;;31.37;19.20;;;5.00;99.90;;;;;;5064216;28;20286;-90
2023/01/19 11:59:23;;;;;;;28.53;19.67;;;4.80;99.90;;;;;;5065484;28;20215;-91
2023/01/19 12:02:22;;;;;;;28.10;18.23;;;4.80;99.90;;;;;;5057949;28;20224;-92
2023/01/19 12:05:19;;;;;;;27.70;18.47;;;4.90;99.90;;;;;;5069690;28;20227;-92
2023/01/19 12:08:16;;;;;;;29.73;18.10;;;5.00;99.90;;;;;;5058406;28;20235;-92
2023/01/19 12:11:09;;;;;;;28.73;18.40;;;5.10;99.90;;;;;;5075939;28;20256;-92
2023/01/19 12:14:00;;;;;;;30.83;19.77;;;4.80;99.90;;;;;;5058950;28;20278;-91
2023/01/19 12:16:51;;;;;;;29.87;18.57;;;4.90;99.90;;;;;;5040866;28;20687;-91
2023/01/19 12:19:48;;;;;;;29.57;19.00;;;4.90;99.90;;;;;;5055118;28;20287;-91
2023/01/19 12:22:49;;;;;;;30.57;19.60;;;5.10;99.90;;;;;;5071851;28;20635;-91
2023/01/19 12:26:02;;;;;;;29.30;18.97;;;5.00;99.90;;;;;;5058269;28;20290;-92
2023/01/19 12:28:56;;;;;;;27.70;19.07;;;5.10;99.90;;;;;;5066899;28;20253;-92
2023/01/19 12:31:46;;;;;;;29.40;19.00;;;5.00;99.90;;;;;;5070797;28;20273;-91
2023/01/19 12:34:45;;;;;;;32.47;19.50;;;4.90;99.90;;;;;;5078092;28;20738;-90
2023/01/19 12:37:42;;;;;;;33.30;18.90;;;5.10;99.90;;;;;;5080033;28;20225;-91
2023/01/19 12:40:34;;;;;;;29.30;17.93;;;5.30;99.90;;;;;;5067842;28;20231;-92
2023/01/19 12:43:23;;;;;;;27.67;18.33;;;5.30;99.90;;;;;;5069756;28;20200;-92
2023/01/19 12:46:20;;;;;;;31.80;19.47;;;5.10;99.90;;;;;;5085595;28;20223;-91
2023/01/19 12:49:17;;;;;;;29.73;19.43;;;5.20;99.90;;;;;;5057572;28;20322;-90
2023/01/19 12:52:32;;;;;;;32.83;20.47;;;5.20;99.90;;;;;;5062707;28;20221;-92
2023/01/19 12:55:25;;;;;;;33.20;21.87;;;5.20;99.90;;;;;;5058018;28;20224;-91
2023/01/19 12:58:17;;;;;;;39.40;23.10;;;5.30;99.90;;;;;;5067921;28;20224;-91
2023/01/19 13:01:16;;;;;;;33.67;21.93;;;5.20;99.90;;;;;;5072045;28;20220;-92
2023/01/19 13:04:08;;;;;;;37.97;22.20;;;5.00;99.90;;;;;;5086394;28;20258;-91
2023/01/19 13:07:09;;;;;;;40.77;22.60;;;4.70;99.90;;;;;;5071775;28;20224;-93
2023/01/19 13:09:58;;;;;;;41.47;23.27;;;4.90;99.90;;;;;;5070731;28;20223;-91
2023/01/19 13:13:16;;;;;;;36.60;21.97;;;4.80;99.90;;;;;;5070106;28;20319;-91
2023/01/19 13:16:38;;;;;;;38.00;23.10;;;4.90;99.90;;;;;;5060192;28;20227;-91
2023/01/19 13:19:48;;;;;;;34.43;21.37;;;4.90;99.90;;;;;;5060013;28;20232;-92
2023/01/19 13:23:15;;;;;;;33.80;21.97;;;4.80;99.90;;;;;;5055943;28;20226;-91
2023/01/19 13:26:06;;;;;;;33.13;21.47;;;5.10;99.90;;;;;;5038805;28;20225;-90
2023/01/19 13:29:02;;;;;;;34.60;22.27;;;4.90;99.90;;;;;;5039758;28;20814;-91
2023/01/19 13:32:01;;;;;;;39.73;22.60;;;4.90;99.90;;;;;;5056478;28;21005;-90
2023/01/19 13:34:56;;;;;;;36.90;23.03;;;5.00;99.90;;;;;;5054300;28;20224;-91
2023/01/19 13:37:46;;;;;;;41.57;25.63;;;5.10;99.90;;;;;;5067871;28;20232;-90
2023/01/19 13:40:38;;;;;;;42.53;25.27;;;4.90;99.90;;;;;;5068629;28;20228;-93
2023/01/19 13:43:34;;;;;;;42.17;24.80;;;4.90;99.90;;;;;;5056540;28;20228;-90
2023/01/19 13:46:27;;;;;;;39.93;24.53;;;4.70;99.90;;;;;;5068619;28;20346;-91
2023/01/19 13:49:22;;;;;;;36.87;23.50;;;4.80;99.90;;;;;;5070545;28;20234;-92
2023/01/19 13:52:17;;;;;;;32.63;21.03;;;4.70;99.90;;;;;;5052400;28;20216;-91
2023/01/19 13:55:13;;;;;;;33.27;21.70;;;4.80;99.90;;;;;;5056512;28;20220;-90
2023/01/19 13:58:02;;;;;;;32.47;21.43;;;4.90;99.90;;;;;;5067684;28;20240;-92
2023/01/19 14:00:51;;;;;;;33.77;21.60;;;4.70;99.90;;;;;;5068642;28;20269;-91
2023/01/19 14:03:45;;;;;;;35.73;22.40;;;4.70;99.90;;;;;;5077083;28;20294;-90
2023/01/19 14:06:38;;;;;;;36.17;21.50;;;4.80;99.90;;;;;;5063315;28;20733;-90
2023/01/19 14:09:29;;;;;;;35.53;21.50;;;4.60;99.90;;;;;;5050035;28;20233;-90
2023/01/19 14:12:20;;;;;;;35.53;22.57;;;4.60;99.90;;;;;;5059258;28;20219;-90
2023/01/19 14:15:14;;;;;;;34.53;22.23;;;4.80;99.90;;;;;;5060113;28;20358;-91
2023/01/19 14:18:25;;;;;;;38.20;22.80;;;4.80;99.90;;;;;;5060990;28;20231;-92
2023/01/19 14:21:17;;;;;;;36.43;22.63;;;4.80;99.90;;;;;;5056567;28;20228;-92
2023/01/19 14:24:08;;;;;;;35.90;22.47;;;4.80;99.90;;;;;;5052136;28;20606;-90
2023/01/19 14:27:10;;;;;;;35.30;21.73;;;4.70;99.90;;;;;;5065601;28;20318;-91
2023/01/19 14:30:20;;;;;;;35.60;21.30;;;4.90;99.90;;;;;;5050160;28;20242;-91
2023/01/19 14:33:33;;;;;;;35.20;20.03;;;4.80;99.90;;;;;;5055933;28;20268;-92
2023/01/19 14:36:38;;;;;;;31.97;19.67;;;4.70;99.90;;;;;;5052139;28;20227;-84
2023/01/19 14:39:32;;;;;;;31.93;20.17;;;4.90;99.90;;;;;;5054791;28;20290;-85
2023/01/19 14:42:27;;;;;;;30.87;20.10;;;5.00;99.90;;;;;;5054601;28;20351;-88
2023/01/19 14:45:39;;;;;;;31.60;19.77;;;4.60;99.90;;;;;;5061218;28;20315;-87
2023/01/19 14:48:30;;;;;;;31.03;19.50;;;4.70;99.90;;;;;;5065375;28;20216;-88
2023/01/19 14:51:22;;;;;;;32.00;19.53;;;4.80;99.90;;;;;;5061847;28;20311;-89